Airfield :
LOGIN :

Register | Disclaimer

   EN    FR    IT 

 










Legend :    VFR   Marginal VFR   IFR   Intensive IFR   Very Intensive IFR
Visi :
Ceiling :
>= 8 km
>= 3000ft
5 to 8 km
1000 to 3000 ft
1500m to 5 km
500 to 1000 ft
800 to 1500m
200 to 500 ft
< 800m
< 200 ft
Symbols :   Thunderstorms  Fog  Heavy snow  Heavy precipitations  Wind > 20 kt
SIGMETs :     Misc.  Thunderstorms  Icing  Turbulence  Mountain Waves  Volcanic Ashes







- Airport Elevation : 327 ft
- IATA code : BHX
- Download approach charts


EGBB - Birmingham

CURRENT METAR :
  • 200450Z 18008KT 150V210 9999 SCT004 BKN018 16/16 Q1003 RERA

EXPIRED METARs :
  • 200420Z 17008KT 8000 -RA SCT006 BKN018 16/16 Q1003 RERA
  • 200350Z 18006KT 5000 RA SCT006 BKN010 16/16 Q1003
  • 200320Z 17007KT 8000 -RA SCT006 BKN016 16/16 Q1003
  • 200250Z 17007KT 9999 FEW006 BKN017 16/16 Q1003
  • 200220Z 16006KT 9999 BKN017 16/16 Q1004

TAF AMD TAF EGBB
Valid from the 20 at 04:00 until the 21 at 00:00 UTC


200417Z 2004/2024 19010KT 9999 BKN025
TEMPO 2004/2006 2000 +SHRA BKN007
BECMG 2008/2011 27014KT
TEMPO 2011/2015 6000 SHRA
BECMG 2021/2024 20004KT
ATIS : +44 121 780 0910
No reported NOTAMs for that airfield.
1 SIGMET reported for the London FIR (EGTT) :
 
Embedded thunderstorms
EGTT SIGMET 01 VALID 200130/200530 EGRR
EGTT LONDON FIR EMBD TS OBS WI N5122 W00150 - N5247 E00149 - N5113 E00138 - N5010 E00011 - N5000 W00015 - N5000 W00137 - N5122 W00150 TOP FL350 MOV NE 25KT NC=



MET'MAP, your aeronautical weather chart ! - Copyright ORBIFLY December 2007 - Disclaimer

ORBIFLY MET'MAP TEAM :

Programming & Development : Alexandra Zaïnal
Concept & Development : Baudouin d'Aumeries
Co-Development & Prog : Marc-Olivier Méhu
Technical & hardware support : Manuel Goepfert

Contact : metmap@orbifly.com




SOURCES & CREDITS :

   NOAA